Time;durP1;ratioP1;P1;durP2;ratioP2;P2;SDS_P1;SDS_P2;PMS_P1;PMS_P2;Temp;Humidity;BMP_temperature;BMP_pressure;BME280_temperature;BME280_humidity;BME280_pressure;Samples;Min_cycle;Max_cycle;Signal;HPM_P1;HPM_P2
2022/11/09 00:00:42;;;;;;;5.10;1.58;;;13.50;99.90;;;;;;5062020;28;20056;-71
2022/11/09 00:03:10;;;;;;;3.92;1.35;;;13.50;99.90;;;;;;5079324;28;20023;-71
2022/11/09 00:05:38;;;;;;;2.38;1.17;;;13.50;99.90;;;;;;5079871;28;20017;-71
2022/11/09 00:08:07;;;;;;;5.35;1.63;;;13.50;99.90;;;;;;5079233;28;20484;-71
2022/11/09 00:10:34;;;;;;;3.80;1.45;;;13.50;99.90;;;;;;5079426;28;20024;-71
2022/11/09 00:13:01;;;;;;;2.95;1.20;;;13.50;99.90;;;;;;5079700;28;20020;-71
2022/11/09 00:15:29;;;;;;;5.70;1.42;;;13.40;99.90;;;;;;5044837;28;20017;-71
2022/11/09 00:18:01;;;;;;;5.28;1.30;;;13.50;99.90;;;;;;5078889;28;20036;-71
2022/11/09 00:20:28;;;;;;;7.60;1.58;;;13.50;99.90;;;;;;5079279;28;20025;-71
2022/11/09 00:22:56;;;;;;;2.88;1.33;;;13.50;99.90;;;;;;5079566;28;20152;-71
2022/11/09 00:25:23;;;;;;;2.65;1.20;;;13.50;99.90;;;;;;5061189;28;20036;-71
2022/11/09 00:27:51;;;;;;;2.95;0.95;;;13.50;99.90;;;;;;5078894;28;20319;-71
2022/11/09 00:30:19;;;;;;;4.15;1.17;;;13.50;99.90;;;;;;5078898;28;20025;-71
2022/11/09 00:32:46;;;;;;;2.00;0.90;;;13.50;99.90;;;;;;5079023;28;20339;-71
2022/11/09 00:35:14;;;;;;;3.30;1.25;;;13.60;99.90;;;;;;5079110;28;20022;-71
2022/11/09 00:37:41;;;;;;;5.45;1.35;;;13.60;99.90;;;;;;5061629;28;20028;-71
2022/11/09 00:40:09;;;;;;;4.63;1.42;;;13.60;99.90;;;;;;5078795;28;20021;-71
2022/11/09 00:42:36;;;;;;;4.20;1.38;;;13.50;99.90;;;;;;5078572;28;20039;-71
2022/11/09 00:45:04;;;;;;;2.15;1.05;;;13.50;99.90;;;;;;5078572;28;20039;-71
2022/11/09 00:47:32;;;;;;;6.93;2.25;;;13.50;99.90;;;;;;5078507;28;20021;-71
2022/11/09 00:49:59;;;;;;;2.90;1.20;;;13.50;99.90;;;;;;5079297;28;20278;-71
2022/11/09 00:52:26;;;;;;;3.05;1.17;;;13.60;99.90;;;;;;5078459;28;20036;-71
2022/11/09 00:54:54;;;;;;;5.53;1.08;;;13.50;99.90;;;;;;5078244;28;20043;-71
2022/11/09 00:57:21;;;;;;;1.85;0.70;;;13.60;99.90;;;;;;5078328;28;20020;-71
2022/11/09 00:59:48;;;;;;;2.03;0.85;;;13.60;99.90;;;;;;5078209;28;20040;-70
2022/11/09 01:02:15;;;;;;;3.50;1.25;;;13.60;99.90;;;;;;5077928;28;20348;-71
2022/11/09 01:04:42;;;;;;;6.78;1.30;;;13.60;99.90;;;;;;5077113;28;20074;-71
2022/11/09 01:07:10;;;;;;;2.17;1.08;;;13.60;99.90;;;;;;5060335;28;20024;-71
2022/11/09 01:09:38;;;;;;;3.70;0.80;;;13.60;99.90;;;;;;5078123;28;20067;-71
2022/11/09 01:12:05;;;;;;;4.53;1.25;;;13.60;99.90;;;;;;5078088;28;20039;-71
2022/11/09 01:14:32;;;;;;;4.03;1.00;;;13.70;99.90;;;;;;5078443;28;20317;-71
2022/11/09 01:16:59;;;;;;;3.50;1.00;;;13.60;99.90;;;;;;5077875;28;20082;-71
2022/11/09 01:19:28;;;;;;;4.32;1.20;;;13.60;99.90;;;;;;5078486;28;20031;-71
2022/11/09 01:21:55;;;;;;;2.70;0.88;;;13.60;99.90;;;;;;5077776;28;20025;-71
2022/11/09 01:24:23;;;;;;;3.85;1.33;;;13.60;99.90;;;;;;5078554;28;20073;-71
2022/11/09 01:26:50;;;;;;;3.75;1.00;;;13.60;99.90;;;;;;5077754;28;20059;-71
2022/11/09 01:29:18;;;;;;;2.05;0.75;;;13.60;99.90;;;;;;5059944;28;20074;-71
2022/11/09 01:31:47;;;;;;;1.88;0.73;;;13.60;99.90;;;;;;5077620;28;20027;-71
2022/11/09 01:34:16;;;;;;;3.90;1.17;;;13.50;99.90;;;;;;5077695;28;20024;-71
2022/11/09 01:36:43;;;;;;;3.65;1.27;;;13.50;99.90;;;;;;5060781;28;20029;-71
2022/11/09 01:39:11;;;;;;;3.35;1.38;;;13.50;99.90;;;;;;5078069;28;20024;-71
2022/11/09 01:41:38;;;;;;;3.17;1.30;;;13.50;99.90;;;;;;5077369;28;20021;-71
2022/11/09 01:44:20;;;;;;;3.42;1.10;;;13.50;99.90;;;;;;5059860;28;20017;-71
2022/11/09 01:46:52;;;;;;;4.80;1.10;;;13.50;99.90;;;;;;5077272;28;20024;-71
2022/11/09 01:49:42;;;;;;;4.43;1.38;;;13.50;99.90;;;;;;5077597;28;20475;-71
2022/11/09 01:52:12;;;;;;;2.65;1.15;;;13.50;99.90;;;;;;5077240;28;20031;-71
2022/11/09 01:54:47;;;;;;;3.58;1.30;;;13.50;99.90;;;;;;5077948;28;20075;-70
2022/11/09 01:57:36;;;;;;;2.22;1.08;;;13.50;99.90;;;;;;5077163;28;20016;-71
2022/11/09 02:00:11;;;;;;;2.13;1.10;;;13.50;99.90;;;;;;5077952;28;20304;-71
2022/11/09 02:02:51;;;;;;;2.90;1.27;;;13.50;99.90;;;;;;5076435;28;20052;-71
2022/11/09 02:05:26;;;;;;;3.65;1.20;;;13.50;99.90;;;;;;5076758;28;20039;-71
2022/11/09 02:07:54;;;;;;;3.63;1.00;;;13.50;99.90;;;;;;5076896;28;20043;-71
2022/11/09 02:10:31;;;;;;;6.05;1.50;;;13.50;99.90;;;;;;5076908;28;20025;-71
2022/11/09 02:12:59;;;;;;;3.15;1.60;;;13.50;99.90;;;;;;5077434;28;20101;-71
2022/11/09 02:15:27;;;;;;;3.45;1.45;;;13.40;99.90;;;;;;5076801;28;20032;-71
2022/11/09 02:17:56;;;;;;;5.65;1.20;;;13.40;99.90;;;;;;5076750;28;20505;-71
2022/11/09 02:20:25;;;;;;;4.13;1.20;;;13.40;99.90;;;;;;5077023;28;20032;-71
2022/11/09 02:22:52;;;;;;;2.53;1.33;;;13.40;99.90;;;;;;5076631;28;20033;-71
2022/11/09 02:25:19;;;;;;;3.50;1.40;;;13.40;99.90;;;;;;5076735;28;20024;-71
2022/11/09 02:27:47;;;;;;;3.22;1.08;;;13.40;99.90;;;;;;5059138;28;20021;-71
2022/11/09 02:30:15;;;;;;;2.58;1.10;;;13.40;99.90;;;;;;5077277;28;20044;-70
2022/11/09 02:32:42;;;;;;;2.75;0.98;;;13.40;99.90;;;;;;5076599;28;20432;-71
2022/11/09 02:35:10;;;;;;;3.78;1.45;;;13.50;99.90;;;;;;5077293;28;20031;-71
2022/11/09 02:37:47;;;;;;;5.20;1.45;;;13.50;99.90;;;;;;5076612;28;20416;-71
2022/11/09 02:40:22;;;;;;;5.68;1.48;;;13.50;99.90;;;;;;5077244;28;20074;-71
2022/11/09 02:42:50;;;;;;;5.00;1.23;;;13.50;99.90;;;;;;5076522;28;20446;-71
2022/11/09 02:45:17;;;;;;;2.47;0.98;;;13.50;99.90;;;;;;5076952;28;20017;-71
2022/11/09 02:47:45;;;;;;;3.33;1.15;;;13.50;99.90;;;;;;5075377;28;20421;-71
2022/11/09 02:50:12;;;;;;;2.80;1.02;;;13.50;99.90;;;;;;5077049;28;20025;-71
2022/11/09 02:52:39;;;;;;;2.95;1.10;;;13.50;99.90;;;;;;5076430;28;20082;-71
2022/11/09 02:55:07;;;;;;;3.67;1.00;;;13.60;99.90;;;;;;5076881;28;20093;-71
2022/11/09 02:57:35;;;;;;;4.53;1.17;;;13.50;99.90;;;;;;5076406;28;20016;-71
2022/11/09 03:00:02;;;;;;;3.17;1.52;;;13.50;99.90;;;;;;5076963;28;20024;-71
2022/11/09 03:02:30;;;;;;;3.40;1.38;;;13.50;99.90;;;;;;5075972;28;20502;-71
2022/11/09 03:04:58;;;;;;;3.55;1.85;;;13.50;99.90;;;;;;5076773;28;20397;-71
2022/11/09 03:07:25;;;;;;;2.40;1.00;;;13.50;99.90;;;;;;5076408;28;20420;-71
2022/11/09 03:09:53;;;;;;;2.00;0.85;;;13.50;99.90;;;;;;5076381;28;20032;-71
2022/11/09 03:12:28;;;;;;;3.05;1.50;;;13.50;99.90;;;;;;5076244;28;20442;-71
2022/11/09 03:14:59;;;;;;;2.88;1.30;;;13.50;99.90;;;;;;5076445;28;20025;-71
2022/11/09 03:17:27;;;;;;;3.20;1.08;;;13.50;99.90;;;;;;5058406;28;20086;-71
2022/11/09 03:19:54;;;;;;;2.58;1.23;;;13.50;99.90;;;;;;5080269;28;20027;-71
2022/11/09 03:22:21;;;;;;;1.85;0.95;;;13.50;99.90;;;;;;5080088;28;20082;-71
2022/11/09 03:24:49;;;;;;;3.85;1.20;;;13.50;99.90;;;;;;5080300;28;20020;-71
2022/11/09 03:27:16;;;;;;;2.53;1.05;;;13.50;99.90;;;;;;5080346;28;20028;-71
2022/11/09 03:29:43;;;;;;;2.50;1.00;;;13.50;99.90;;;;;;5079997;28;20044;-71
2022/11/09 03:32:10;;;;;;;2.47;1.02;;;13.50;99.90;;;;;;5080101;28;20321;-71
2022/11/09 03:34:38;;;;;;;4.45;0.90;;;13.50;99.90;;;;;;5080415;28;20028;-71
2022/11/09 03:37:05;;;;;;;4.47;1.00;;;13.40;99.90;;;;;;5062226;28;20425;-71
2022/11/09 03:39:32;;;;;;;2.88;0.80;;;13.40;99.90;;;;;;5079839;28;20067;-71
2022/11/09 03:42:00;;;;;;;3.50;0.90;;;13.40;99.90;;;;;;5079953;28;20043;-71
2022/11/09 03:44:28;;;;;;;2.05;1.17;;;13.40;99.90;;;;;;5080483;28;20074;-71
2022/11/09 03:46:55;;;;;;;3.67;1.17;;;13.30;99.90;;;;;;5079636;28;20405;-71
2022/11/09 03:49:23;;;;;;;1.98;1.00;;;13.30;99.90;;;;;;5080212;28;20104;-71
2022/11/09 03:51:50;;;;;;;1.40;0.70;;;13.40;99.90;;;;;;5079602;28;20020;-71
2022/11/09 03:54:18;;;;;;;2.30;0.90;;;13.40;99.90;;;;;;5079799;28;20099;-71
2022/11/09 03:56:45;;;;;;;2.92;1.20;;;13.40;99.90;;;;;;5079453;28;20032;-71
2022/11/09 03:59:12;;;;;;;3.33;1.00;;;13.40;99.90;;;;;;5079447;28;20102;-71
2022/11/09 04:01:40;;;;;;;3.00;0.98;;;13.40;99.90;;;;;;5079036;28;20456;-71
2022/11/09 04:04:07;;;;;;;2.25;1.00;;;13.30;99.90;;;;;;5080062;28;20025;-71
2022/11/09 04:06:35;;;;;;;2.42;1.00;;;13.30;99.90;;;;;;5079852;28;20016;-70
2022/11/09 04:09:02;;;;;;;7.05;1.77;;;13.30;99.90;;;;;;5080367;28;20056;-71
2022/11/09 04:11:30;;;;;;;2.42;1.25;;;13.30;99.90;;;;;;5079221;28;20024;-71
2022/11/09 04:13:57;;;;;;;3.00;0.80;;;13.20;99.90;;;;;;5079325;28;20043;-71
2022/11/09 04:16:25;;;;;;;1.48;0.80;;;13.20;99.90;;;;;;5079008;28;20033;-71
2022/11/09 04:18:52;;;;;;;2.75;1.00;;;13.20;99.90;;;;;;5061426;28;20073;-71
2022/11/09 04:21:20;;;;;;;2.88;1.00;;;13.20;99.90;;;;;;5061217;28;20024;-71
2022/11/09 04:23:48;;;;;;;3.10;1.25;;;13.20;99.90;;;;;;5079038;28;20032;-71
2022/11/09 04:26:16;;;;;;;2.50;1.02;;;13.10;99.90;;;;;;5079064;28;20017;-71
2022/11/09 04:28:43;;;;;;;3.38;1.17;;;13.10;99.90;;;;;;5060485;28;20416;-70
2022/11/09 04:31:11;;;;;;;2.30;0.98;;;13.00;99.90;;;;;;5078809;28;20060;-71
2022/11/09 04:33:38;;;;;;;2.22;0.90;;;13.00;99.90;;;;;;5079377;28;20347;-71
2022/11/09 04:36:06;;;;;;;4.63;1.10;;;12.90;99.90;;;;;;5061224;28;20021;-71
2022/11/09 04:38:35;;;;;;;2.22;0.80;;;13.00;99.90;;;;;;5079318;28;20031;-71
2022/11/09 04:41:03;;;;;;;5.25;1.10;;;13.00;99.90;;;;;;5079189;28;20024;-71
2022/11/09 04:43:31;;;;;;;2.67;1.27;;;13.00;99.90;;;;;;5061621;28;20027;-71
2022/11/09 04:46:03;;;;;;;2.70;1.13;;;13.00;99.90;;;;;;5060830;28;20242;-71
2022/11/09 04:48:31;;;;;;;8.75;1.17;;;13.00;99.90;;;;;;5060976;28;20413;-71
2022/11/09 04:51:04;;;;;;;3.08;0.90;;;13.00;99.90;;;;;;5078468;28;20115;-71
2022/11/09 04:53:31;;;;;;;1.98;0.88;;;13.00;99.90;;;;;;5079047;28;20074;-71
2022/11/09 04:55:59;;;;;;;4.72;1.23;;;13.00;99.90;;;;;;5078692;28;20031;-71
2022/11/09 04:58:27;;;;;;;4.15;1.20;;;13.00;99.90;;;;;;5078409;28;20028;-71
2022/11/09 05:00:54;;;;;;;3.30;0.93;;;13.00;99.90;;;;;;5078074;28;20107;-71
2022/11/09 05:03:22;;;;;;;4.10;1.17;;;12.90;99.90;;;;;;5078299;28;20091;-71
2022/11/09 05:05:49;;;;;;;2.85;1.10;;;12.90;99.90;;;;;;5060468;28;20020;-71
2022/11/09 05:08:16;;;;;;;5.22;1.10;;;12.90;99.90;;;;;;5060427;28;20024;-70
2022/11/09 05:10:43;;;;;;;2.35;1.00;;;12.90;99.90;;;;;;5060571;28;20120;-71
2022/11/09 05:13:12;;;;;;;4.95;1.17;;;12.90;99.90;;;;;;5077994;28;20302;-71
2022/11/09 05:15:40;;;;;;;4.75;1.10;;;12.80;99.90;;;;;;5077898;28;20040;-71
2022/11/09 05:18:09;;;;;;;3.20;1.75;;;12.80;99.90;;;;;;5078494;28;20420;-71
2022/11/09 05:20:36;;;;;;;3.75;1.05;;;12.80;99.90;;;;;;5077977;28;20103;-71
2022/11/09 05:25:49;;;;;;;4.05;1.38;;;12.70;99.90;;;;;;5077844;28;20443;-71
2022/11/09 05:28:17;;;;;;;2.75;1.10;;;12.70;99.90;;;;;;5077797;28;20416;-71
2022/11/09 05:30:45;;;;;;;4.45;1.45;;;12.70;99.90;;;;;;5060973;28;20071;-71
2022/11/09 05:33:12;;;;;;;3.47;1.40;;;12.70;99.90;;;;;;5059988;28;20049;-70
2022/11/09 05:35:39;;;;;;;2.50;1.33;;;12.70;99.90;;;;;;5077530;28;20020;-71
2022/11/09 05:38:06;;;;;;;4.47;1.60;;;12.70;99.90;;;;;;5077823;28;20153;-71
2022/11/09 05:40:33;;;;;;;2.55;1.30;;;12.60;99.90;;;;;;5077363;28;20317;-70
2022/11/09 05:43:00;;;;;;;3.17;1.52;;;12.60;99.90;;;;;;5059666;28;20036;-70
2022/11/09 05:45:28;;;;;;;3.00;1.60;;;12.60;99.90;;;;;;5077985;28;20016;-71
2022/11/09 05:47:55;;;;;;;4.15;1.80;;;12.60;99.90;;;;;;5059512;28;20432;-71
2022/11/09 05:50:23;;;;;;;4.03;1.80;;;12.60;99.90;;;;;;5077491;28;20066;-71
2022/11/09 05:52:51;;;;;;;3.70;1.88;;;12.60;99.90;;;;;;5077780;28;20032;-71
2022/11/09 05:55:19;;;;;;;2.50;1.52;;;12.60;99.90;;;;;;5077103;28;20032;-71
2022/11/09 05:57:46;;;;;;;5.60;1.63;;;12.60;99.90;;;;;;5077751;28;20024;-71
2022/11/09 06:00:15;;;;;;;4.28;2.30;;;12.60;99.90;;;;;;5077306;28;20421;-71
2022/11/09 06:02:42;;;;;;;4.78;2.92;;;12.60;99.90;;;;;;5076754;28;20048;-71
2022/11/09 06:05:09;;;;;;;4.00;1.90;;;12.60;99.90;;;;;;5077025;28;20062;-71
2022/11/09 06:07:36;;;;;;;6.20;2.22;;;12.60;99.90;;;;;;5075880;28;20028;-71
2022/11/09 06:10:04;;;;;;;4.20;1.70;;;12.60;99.90;;;;;;5059508;28;20313;-71
2022/11/09 06:12:32;;;;;;;3.08;1.70;;;12.60;99.90;;;;;;5077234;28;20025;-71
2022/11/09 06:14:59;;;;;;;5.40;2.28;;;12.60;99.90;;;;;;5076942;28;20351;-71
2022/11/09 06:17:26;;;;;;;5.50;1.92;;;12.60;99.90;;;;;;5076815;28;20431;-71
2022/11/09 06:19:54;;;;;;;4.78;1.98;;;12.60;99.90;;;;;;5076980;28;20033;-71
2022/11/09 06:22:21;;;;;;;4.53;2.00;;;12.60;99.90;;;;;;5077290;28;20042;-69
2022/11/09 06:24:49;;;;;;;5.38;2.13;;;12.60;99.90;;;;;;5076801;28;20031;-70
2022/11/09 06:27:16;;;;;;;3.42;1.50;;;12.60;99.90;;;;;;5076673;28;20066;-72
2022/11/09 06:29:43;;;;;;;6.53;2.15;;;12.60;99.90;;;;;;5077402;28;20397;-71
2022/11/09 06:32:11;;;;;;;4.70;2.22;;;12.50;99.90;;;;;;5076604;28;20103;-72
2022/11/09 06:34:38;;;;;;;6.00;2.17;;;12.50;99.90;;;;;;5076668;28;20027;-72
2022/11/09 06:37:06;;;;;;;4.40;1.90;;;12.50;99.90;;;;;;5076891;28;20028;-72
2022/11/09 06:39:33;;;;;;;2.92;2.20;;;12.50;99.90;;;;;;5077341;28;20027;-72
2022/11/09 06:42:00;;;;;;;3.90;2.03;;;12.50;99.90;;;;;;5058688;28;20046;-72
2022/11/09 06:44:28;;;;;;;3.67;2.47;;;12.40;99.90;;;;;;5042291;28;20016;-72
2022/11/09 06:46:55;;;;;;;6.75;2.67;;;12.50;99.90;;;;;;5076459;28;20017;-72
2022/11/09 06:49:23;;;;;;;6.13;2.80;;;12.50;99.90;;;;;;5076632;28;20016;-72
2022/11/09 06:51:51;;;;;;;3.10;1.92;;;12.50;99.90;;;;;;5059119;28;20036;-71
2022/11/09 06:54:19;;;;;;;4.03;2.40;;;12.50;99.90;;;;;;5076428;28;20024;-73
2022/11/09 06:56:46;;;;;;;5.22;2.67;;;12.50;99.90;;;;;;5076950;28;20389;-77
2022/11/09 06:59:13;;;;;;;6.43;2.70;;;12.50;99.90;;;;;;5076951;28;20389;-81
2022/11/09 07:01:41;;;;;;;4.70;2.40;;;12.50;99.90;;;;;;5076164;28;20045;-80
2022/11/09 07:04:12;;;;;;;4.30;2.60;;;12.50;99.90;;;;;;5076719;28;20066;-77
2022/11/09 07:06:41;;;;;;;3.70;2.53;;;12.50;99.90;;;;;;5076748;28;20017;-76
2022/11/09 07:09:09;;;;;;;5.03;2.40;;;12.60;99.90;;;;;;5076784;28;20021;-76
2022/11/09 07:11:37;;;;;;;3.75;2.00;;;12.60;99.90;;;;;;5076327;28;20025;-76
2022/11/09 07:14:04;;;;;;;4.50;2.45;;;12.60;99.90;;;;;;5076669;28;20027;-77
2022/11/09 07:16:32;;;;;;;3.97;2.00;;;12.60;99.90;;;;;;5058392;28;20417;-77
2022/11/09 07:19:00;;;;;;;4.18;2.10;;;12.60;99.90;;;;;;5076415;28;20098;-76
2022/11/09 07:21:27;;;;;;;4.20;1.88;;;12.70;99.90;;;;;;5058878;28;20025;-76
2022/11/09 07:23:55;;;;;;;5.75;2.17;;;12.70;99.90;;;;;;5076550;28;20017;-77
2022/11/09 07:26:22;;;;;;;3.13;1.50;;;12.80;99.90;;;;;;5076486;28;20020;-76
2022/11/09 07:28:49;;;;;;;2.92;1.50;;;12.90;99.90;;;;;;5076352;28;20403;-76
2022/11/09 07:31:16;;;;;;;3.80;1.52;;;12.90;99.90;;;;;;5076307;28;20111;-76
2022/11/09 07:33:43;;;;;;;6.07;1.88;;;13.00;99.90;;;;;;5076436;28;20017;-80
2022/11/09 07:36:11;;;;;;;2.78;1.42;;;13.00;99.90;;;;;;5058278;28;20060;-78
2022/11/09 07:38:38;;;;;;;4.65;1.50;;;13.10;99.90;;;;;;5075186;28;20031;-77
2022/11/09 07:41:05;;;;;;;2.63;1.10;;;13.20;99.90;;;;;;5076038;28;20028;-76
2022/11/09 07:43:33;;;;;;;3.45;1.55;;;13.20;99.90;;;;;;5075980;28;20023;-71
2022/11/09 07:46:04;;;;;;;3.72;1.23;;;13.20;99.90;;;;;;5076446;28;20071;-75
2022/11/09 07:48:32;;;;;;;4.18;1.10;;;13.30;99.90;;;;;;5076087;28;20021;-71
2022/11/09 07:51:03;;;;;;;5.82;1.60;;;13.30;99.90;;;;;;5075851;28;20027;-71
2022/11/09 07:53:30;;;;;;;4.53;1.60;;;13.30;99.90;;;;;;5058111;28;20039;-71
2022/11/09 07:56:00;;;;;;;6.60;2.33;;;13.30;99.90;;;;;;5076379;28;20033;-72
2022/11/09 07:58:28;;;;;;;3.60;1.70;;;13.30;99.90;;;;;;5075972;28;20024;-70
2022/11/09 08:00:55;;;;;;;3.70;1.50;;;13.30;99.90;;;;;;5057644;28;20028;-71
2022/11/09 08:03:23;;;;;;;3.22;1.70;;;13.20;99.90;;;;;;5076346;28;20404;-71
2022/11/09 08:05:50;;;;;;;3.88;2.05;;;13.20;99.90;;;;;;5079557;28;20024;-72
2022/11/09 08:08:18;;;;;;;4.07;1.63;;;13.10;99.90;;;;;;5079290;28;20027;-69
2022/11/09 08:10:50;;;;;;;3.40;1.50;;;13.00;99.90;;;;;;5079450;28;20103;-70
2022/11/09 08:13:19;;;;;;;3.95;2.25;;;12.80;99.90;;;;;;5079791;28;20025;-70
2022/11/09 08:15:47;;;;;;;4.95;1.80;;;12.70;99.90;;;;;;5079741;28;20017;-70
2022/11/09 08:18:17;;;;;;;3.00;1.60;;;12.60;99.90;;;;;;5079199;28;20023;-70
2022/11/09 08:20:46;;;;;;;3.75;1.58;;;12.60;99.90;;;;;;5079786;28;20021;-70
2022/11/09 08:23:15;;;;;;;4.53;1.50;;;12.50;99.90;;;;;;5079024;28;20024;-70
2022/11/09 08:25:42;;;;;;;6.10;1.17;;;12.50;99.90;;;;;;5079096;28;20100;-70
2022/11/09 08:28:25;;;;;;;3.17;1.50;;;12.40;99.90;;;;;;5078960;28;20106;-70
2022/11/09 08:30:58;;;;;;;3.63;1.30;;;12.40;99.90;;;;;;5078815;28;20100;-76
2022/11/09 08:33:31;;;;;;;5.57;1.35;;;12.30;99.90;;;;;;5079087;28;20103;-72
2022/11/09 08:35:58;;;;;;;3.20;0.95;;;12.30;99.90;;;;;;5079415;28;20021;-72
2022/11/09 08:38:26;;;;;;;1.48;0.70;;;12.30;99.90;;;;;;5079430;28;20012;-72
2022/11/09 08:40:57;;;;;;;2.53;0.73;;;12.20;99.90;;;;;;5078003;28;20020;-71
2022/11/09 08:43:26;;;;;;;2.95;0.80;;;12.30;99.90;;;;;;5061094;28;20024;-71
2022/11/09 08:45:54;;;;;;;4.13;0.85;;;12.20;99.90;;;;;;5079036;28;20020;-72
2022/11/09 08:48:21;;;;;;;4.30;0.90;;;12.20;99.90;;;;;;5078622;28;20100;-73
2022/11/09 08:50:56;;;;;;;4.03;0.90;;;12.10;99.90;;;;;;5078752;28;20016;-72
2022/11/09 08:53:25;;;;;;;3.15;0.95;;;12.10;99.90;;;;;;5078838;28;20016;-73
2022/11/09 08:55:52;;;;;;;4.03;0.80;;;12.00;99.90;;;;;;5078468;28;20074;-72
2022/11/09 08:58:20;;;;;;;6.03;1.08;;;12.00;99.90;;;;;;5079202;28;20024;-72
2022/11/09 09:00:48;;;;;;;6.68;1.13;;;11.80;99.90;;;;;;5078243;28;20032;-72
2022/11/09 09:03:15;;;;;;;9.48;0.75;;;11.80;99.90;;;;;;5078430;28;20027;-71
2022/11/09 09:05:43;;;;;;;3.03;0.75;;;11.80;99.90;;;;;;5078919;28;20028;-71
2022/11/09 09:08:14;;;;;;;2.92;1.13;;;11.80;99.90;;;;;;5078286;28;20099;-73
2022/11/09 09:10:42;;;;;;;7.30;1.10;;;11.80;99.90;;;;;;5078276;28;20016;-72
2022/11/09 09:13:09;;;;;;;3.58;0.60;;;11.90;99.90;;;;;;5060420;28;20016;-72
2022/11/09 09:15:37;;;;;;;4.07;0.77;;;11.90;99.90;;;;;;5078033;28;20036;-72
2022/11/09 09:18:05;;;;;;;5.15;0.90;;;11.90;99.90;;;;;;5076971;28;20035;-71
2022/11/09 09:20:33;;;;;;;2.03;0.65;;;11.90;99.90;;;;;;5078715;28;20103;-73
2022/11/09 09:23:00;;;;;;;4.93;0.90;;;11.90;99.90;;;;;;5077834;28;20020;-74
2022/11/09 09:25:28;;;;;;;5.65;0.90;;;12.00;99.90;;;;;;5078447;28;20308;-73
2022/11/09 09:27:56;;;;;;;3.28;0.50;;;12.10;99.90;;;;;;5077696;28;20024;-72
2022/11/09 09:30:26;;;;;;;5.60;0.80;;;12.10;99.90;;;;;;5077969;28;20029;-74
2022/11/09 09:32:59;;;;;;;2.90;0.70;;;12.10;99.90;;;;;;5060043;28;20036;-74
2022/11/09 09:35:27;;;;;;;4.32;0.90;;;12.20;99.90;;;;;;5076673;28;20039;-74
2022/11/09 09:37:56;;;;;;;3.50;0.50;;;12.20;99.90;;;;;;5077944;28;20101;-73
2022/11/09 09:40:54;;;;;;;3.25;1.20;;;12.30;99.90;;;;;;5078454;28;20108;-74
2022/11/09 09:43:37;;;;;;;2.17;0.45;;;12.30;99.90;;;;;;5059842;28;20020;-73
2022/11/09 09:46:13;;;;;;;3.63;0.55;;;12.30;99.90;;;;;;5077923;28;20099;-73
2022/11/09 09:48:51;;;;;;;4.82;0.68;;;12.20;99.90;;;;;;5059995;28;20319;-72
2022/11/09 09:51:31;;;;;;;4.40;1.05;;;12.10;99.90;;;;;;5059814;28;20335;-73
2022/11/09 09:54:21;;;;;;;2.67;0.50;;;12.00;99.90;;;;;;5077762;28;20434;-74
2022/11/09 09:56:50;;;;;;;3.97;1.30;;;11.90;99.90;;;;;;5077568;28;20324;-72
2022/11/09 09:59:26;;;;;;;4.03;0.60;;;11.90;99.90;;;;;;5077285;28;20465;-72
2022/11/09 10:01:56;;;;;;;2.55;0.40;;;11.90;99.90;;;;;;5076738;28;20044;-73
2022/11/09 10:04:45;;;;;;;2.03;0.38;;;12.00;99.90;;;;;;5077315;28;20074;-73
2022/11/09 10:07:27;;;;;;;0.30;0.20;;;12.10;99.90;;;;;;5059369;28;20442;-73
2022/11/09 10:10:20;;;;;;;2.20;0.43;;;12.20;99.90;;;;;;5077038;28;20016;-73
2022/11/09 10:13:29;;;;;;;3.08;0.50;;;12.30;99.90;;;;;;5077279;28;20025;-73
2022/11/09 10:16:17;;;;;;;2.83;0.45;;;12.50;99.90;;;;;;5076766;28;20032;-72
2022/11/09 10:19:08;;;;;;;2.83;1.15;;;12.70;99.90;;;;;;5077532;28;20078;-71
2022/11/09 10:21:57;;;;;;;3.33;0.77;;;12.90;99.90;;;;;;5077367;28;20095;-72
2022/11/09 10:24:46;;;;;;;0.98;0.50;;;13.00;99.90;;;;;;5077020;28;20108;-73
2022/11/09 10:27:47;;;;;;;2.22;0.68;;;13.10;99.90;;;;;;5076619;28;20012;-72
2022/11/09 10:30:18;;;;;;;2.78;0.57;;;13.20;99.90;;;;;;5077073;28;20050;-72
2022/11/09 10:32:55;;;;;;;2.58;0.70;;;13.10;99.90;;;;;;5076722;28;20050;-73
2022/11/09 10:35:35;;;;;;;1.08;0.47;;;13.20;99.90;;;;;;5076939;28;20021;-75
2022/11/09 10:38:02;;;;;;;2.00;0.50;;;13.20;99.90;;;;;;5058921;28;20034;-74
2022/11/09 10:40:42;;;;;;;1.38;0.50;;;13.30;99.90;;;;;;5077184;28;20020;-75
2022/11/09 10:43:12;;;;;;;2.08;0.50;;;13.40;99.90;;;;;;5076868;28;20082;-74
2022/11/09 10:45:43;;;;;;;2.97;1.35;;;13.60;99.90;;;;;;5077050;28;20027;-73
2022/11/09 10:48:13;;;;;;;5.03;1.60;;;13.70;99.90;;;;;;5058991;28;20017;-73
2022/11/09 10:50:51;;;;;;;3.53;1.58;;;13.80;99.90;;;;;;5076519;28;20024;-74
2022/11/09 10:53:24;;;;;;;5.65;1.60;;;13.80;99.90;;;;;;5077092;28;20024;-73
2022/11/09 10:55:52;;;;;;;10.38;2.40;;;13.80;99.90;;;;;;5077068;28;20074;-72
2022/11/09 10:58:25;;;;;;;5.80;1.10;;;13.80;99.90;;;;;;5058622;28;20323;-73
2022/11/09 11:01:02;;;;;;;3.28;1.20;;;13.80;99.90;;;;;;5058216;28;20111;-74
2022/11/09 11:03:35;;;;;;;5.10;2.17;;;13.70;99.90;;;;;;5076727;28;20489;-73
2022/11/09 11:06:30;;;;;;;17.60;7.47;;;13.70;99.90;;;;;;5077043;28;20027;-73
2022/11/09 11:09:24;;;;;;;1.55;0.50;;;13.70;99.90;;;;;;5060411;28;20047;-74
2022/11/09 11:12:15;;;;;;;3.35;0.40;;;13.70;99.90;;;;;;5073957;28;20032;-75
2022/11/09 11:14:44;;;;;;;2.05;0.50;;;13.80;99.90;;;;;;5076388;28;20025;-72
2022/11/09 11:17:26;;;;;;;3.15;1.10;;;13.90;99.90;;;;;;5076762;28;20021;-73
2022/11/09 11:19:53;;;;;;;4.35;1.08;;;14.00;99.90;;;;;;5076497;28;20123;-73
2022/11/09 11:22:23;;;;;;;2.75;0.60;;;14.00;99.90;;;;;;5076163;28;20044;-75
2022/11/09 11:24:59;;;;;;;4.57;0.60;;;14.10;99.90;;;;;;5076292;28;20439;-72
2022/11/09 11:27:46;;;;;;;5.43;0.88;;;14.10;99.90;;;;;;5076525;28;20024;-72
2022/11/09 11:30:33;;;;;;;2.10;0.60;;;14.10;99.90;;;;;;5076353;28;20017;-71
2022/11/09 11:33:01;;;;;;;2.42;2.03;;;14.10;99.90;;;;;;5075867;28;20327;-71
2022/11/09 11:35:45;;;;;;;1.73;0.60;;;14.20;99.90;;;;;;5076132;28;20027;-72
2022/11/09 11:38:27;;;;;;;2.85;0.75;;;14.30;99.90;;;;;;5076364;28;20021;-75
2022/11/09 11:41:19;;;;;;;2.13;0.52;;;14.30;99.90;;;;;;5079854;28;20031;-75
2022/11/09 11:43:56;;;;;;;4.80;0.88;;;14.40;99.90;;;;;;5080184;28;20023;-76
2022/11/09 11:46:59;;;;;;;1.85;1.13;;;14.40;99.90;;;;;;5080005;28;20074;-75
2022/11/09 11:49:45;;;;;;;5.57;1.45;;;14.50;99.90;;;;;;5048234;28;20033;-75
2022/11/09 11:52:36;;;;;;;3.72;0.68;;;14.50;99.90;;;;;;5080278;28;20025;-72
2022/11/09 11:55:20;;;;;;;2.88;0.52;;;14.50;99.90;;;;;;5079959;28;20020;-72
2022/11/09 11:57:54;;;;;;;5.53;0.93;;;14.60;99.90;;;;;;5061820;28;20032;-72
2022/11/09 12:00:21;;;;;;;3.38;0.50;;;14.70;99.90;;;;;;5080260;28;20100;-72
2022/11/09 12:03:25;;;;;;;2.97;0.63;;;14.70;99.90;;;;;;5079082;28;20052;-74
2022/11/09 12:06:10;;;;;;;1.42;0.43;;;14.80;99.90;;;;;;5079437;28;20408;-73
2022/11/09 12:09:06;;;;;;;2.83;0.60;;;14.90;99.90;;;;;;5079425;28;20028;-75
2022/11/09 12:11:48;;;;;;;6.97;0.85;;;15.00;99.90;;;;;;5079383;28;20028;-73
2022/11/09 12:14:40;;;;;;;2.42;0.80;;;15.00;99.90;;;;;;5079869;28;20090;-75
2022/11/09 12:17:17;;;;;;;3.33;0.82;;;15.10;99.90;;;;;;5079109;28;20027;-74
2022/11/09 12:20:08;;;;;;;2.28;0.50;;;15.20;99.90;;;;;;5079682;28;20106;-75
2022/11/09 12:23:02;;;;;;;2.00;0.45;;;15.20;99.90;;;;;;5079416;28;20032;-73
2022/11/09 12:25:58;;;;;;;1.42;0.70;;;15.20;99.90;;;;;;5079674;28;20032;-75
2022/11/09 12:28:38;;;;;;;1.33;0.52;;;15.30;99.90;;;;;;5079284;28;20028;-73
2022/11/09 12:31:43;;;;;;;3.90;1.00;;;15.30;99.90;;;;;;5078930;28;20023;-74
2022/11/09 12:34:17;;;;;;;2.25;0.82;;;15.40;99.90;;;;;;5070915;28;20036;-73
2022/11/09 12:36:44;;;;;;;3.63;0.90;;;15.30;99.90;;;;;;5079178;28;20031;-73
2022/11/09 12:39:29;;;;;;;2.70;0.52;;;15.30;99.90;;;;;;5079294;28;20031;-76
2022/11/09 12:42:06;;;;;;;3.13;0.60;;;15.30;99.90;;;;;;5078949;28;20028;-75
2022/11/09 12:45:07;;;;;;;3.08;1.00;;;15.40;99.90;;;;;;5078770;28;20032;-74
2022/11/09 12:47:44;;;;;;;3.85;0.77;;;15.40;99.90;;;;;;5070707;28;20028;-75
2022/11/09 12:50:19;;;;;;;1.73;0.50;;;15.40;99.90;;;;;;5078630;28;20030;-74
2022/11/09 12:52:51;;;;;;;2.13;0.77;;;15.40;99.90;;;;;;5078599;28;20420;-75
2022/11/09 12:55:55;;;;;;;3.25;0.60;;;15.40;99.90;;;;;;5078250;28;20033;-75
2022/11/09 12:58:31;;;;;;;2.33;0.70;;;15.40;99.90;;;;;;5078969;28;20049;-74
2022/11/09 13:01:05;;;;;;;2.58;0.82;;;15.50;99.90;;;;;;5078536;28;20031;-74
2022/11/09 13:03:39;;;;;;;4.15;0.50;;;15.60;99.90;;;;;;5078431;28;20048;-73
2022/11/09 13:06:19;;;;;;;4.57;0.50;;;15.60;99.90;;;;;;5078316;28;20052;-75
2022/11/09 13:09:04;;;;;;;1.45;0.50;;;15.60;99.90;;;;;;5078457;28;20446;-75
2022/11/09 13:11:42;;;;;;;2.53;0.30;;;15.60;99.90;;;;;;5078597;28;20028;-76
2022/11/09 13:14:25;;;;;;;2.45;0.30;;;15.60;99.90;;;;;;5078160;28;20025;-74